sensor_id;sensor_type;location;lat;lon;timestamp;pressure;altitude;pressure_sealevel;temperature
15360;BMP280;7779;49.596;11.070;2023-05-18T00:02:05;99041.69;;;9.90
15360;BMP280;7779;49.596;11.070;2023-05-18T00:04:35;99042.13;;;9.84
15360;BMP280;7779;49.596;11.070;2023-05-18T00:07:01;99036.69;;;9.78
15360;BMP280;7779;49.596;11.070;2023-05-18T00:09:33;99041.28;;;9.73
15360;BMP280;7779;49.596;11.070;2023-05-18T00:12:00;99039.09;;;9.66
15360;BMP280;7779;49.596;11.070;2023-05-18T00:14:27;99031.94;;;9.59
15360;BMP280;7779;49.596;11.070;2023-05-18T00:16:53;99044.88;;;9.53
15360;BMP280;7779;49.596;11.070;2023-05-18T00:19:23;99042.81;;;9.48
15360;BMP280;7779;49.596;11.070;2023-05-18T00:21:51;99046.53;;;9.41
15360;BMP280;7779;49.596;11.070;2023-05-18T00:24:17;99038.50;;;9.34
15360;BMP280;7779;49.596;11.070;2023-05-18T00:26:46;99039.78;;;9.29
15360;BMP280;7779;49.596;11.070;2023-05-18T00:29:13;99040.09;;;9.22
15360;BMP280;7779;49.596;11.070;2023-05-18T00:31:39;99042.19;;;9.16
15360;BMP280;7779;49.596;11.070;2023-05-18T00:34:11;99043.47;;;9.11
15360;BMP280;7779;49.596;11.070;2023-05-18T00:36:38;99040.53;;;9.05
15360;BMP280;7779;49.596;11.070;2023-05-18T00:39:05;99036.72;;;8.99
15360;BMP280;7779;49.596;11.070;2023-05-18T00:41:32;99042.25;;;8.95
15360;BMP280;7779;49.596;11.070;2023-05-18T00:43:59;99044.31;;;8.89
15360;BMP280;7779;49.596;11.070;2023-05-18T00:46:27;99046.47;;;8.85
15360;BMP280;7779;49.596;11.070;2023-05-18T00:48:55;99049.38;;;8.79
15360;BMP280;7779;49.596;11.070;2023-05-18T00:51:26;99053.81;;;8.72
15360;BMP280;7779;49.596;11.070;2023-05-18T00:53:54;99046.88;;;8.68
15360;BMP280;7779;49.596;11.070;2023-05-18T00:56:21;99045.53;;;8.61
15360;BMP280;7779;49.596;11.070;2023-05-18T00:58:54;99037.72;;;8.57
15360;BMP280;7779;49.596;11.070;2023-05-18T01:01:27;99045.75;;;8.53
15360;BMP280;7779;49.596;11.070;2023-05-18T01:03:57;99043.66;;;8.48
15360;BMP280;7779;49.596;11.070;2023-05-18T01:06:27;99044.16;;;8.44
15360;BMP280;7779;49.596;11.070;2023-05-18T01:09:01;99042.19;;;8.40
15360;BMP280;7779;49.596;11.070;2023-05-18T01:12:02;99045.22;;;8.36
15360;BMP280;7779;49.596;11.070;2023-05-18T01:17:24;99041.19;;;8.26
15360;BMP280;7779;49.596;11.070;2023-05-18T01:23:00;99040.47;;;8.18
15360;BMP280;7779;49.596;11.070;2023-05-18T01:25:44;99034.75;;;8.09
15360;BMP280;7779;49.596;11.070;2023-05-18T01:28:16;99037.00;;;8.06
15360;BMP280;7779;49.596;11.070;2023-05-18T01:30:43;99036.81;;;8.03
15360;BMP280;7779;49.596;11.070;2023-05-18T01:33:12;99043.19;;;7.99
15360;BMP280;7779;49.596;11.070;2023-05-18T01:35:39;99039.59;;;7.96
15360;BMP280;7779;49.596;11.070;2023-05-18T01:38:26;99039.13;;;7.90
15360;BMP280;7779;49.596;11.070;2023-05-18T01:41:00;99040.38;;;7.85
15360;BMP280;7779;49.596;11.070;2023-05-18T01:43:33;99031.66;;;7.80
15360;BMP280;7779;49.596;11.070;2023-05-18T01:46:38;99039.69;;;7.76
15360;BMP280;7779;49.596;11.070;2023-05-18T01:49:29;99044.81;;;7.68
15360;BMP280;7779;49.596;11.070;2023-05-18T01:52:05;99040.22;;;7.62
15360;BMP280;7779;49.596;11.070;2023-05-18T01:54:35;99039.00;;;7.57
15360;BMP280;7779;49.596;11.070;2023-05-18T01:57:07;99031.16;;;7.53
15360;BMP280;7779;49.596;11.070;2023-05-18T01:59:34;99036.69;;;7.49
15360;BMP280;7779;49.596;11.070;2023-05-18T02:02:02;99024.72;;;7.45
15360;BMP280;7779;49.596;11.070;2023-05-18T02:04:27;99027.72;;;7.41
15360;BMP280;7779;49.596;11.070;2023-05-18T02:06:54;99018.38;;;7.38
15360;BMP280;7779;49.596;11.070;2023-05-18T02:09:21;99021.41;;;7.35
15360;BMP280;7779;49.596;11.070;2023-05-18T02:11:48;99029.38;;;7.31
15360;BMP280;7779;49.596;11.070;2023-05-18T02:14:14;99028.16;;;7.26
15360;BMP280;7779;49.596;11.070;2023-05-18T02:16:40;99024.41;;;7.21
15360;BMP280;7779;49.596;11.070;2023-05-18T02:19:06;99019.94;;;7.17
15360;BMP280;7779;49.596;11.070;2023-05-18T02:21:31;99018.69;;;7.12
15360;BMP280;7779;49.596;11.070;2023-05-18T02:24:01;99018.34;;;7.07
15360;BMP280;7779;49.596;11.070;2023-05-18T02:26:27;99018.75;;;7.02
15360;BMP280;7779;49.596;11.070;2023-05-18T02:28:52;99023.47;;;6.99
15360;BMP280;7779;49.596;11.070;2023-05-18T02:31:18;99020.72;;;6.96
15360;BMP280;7779;49.596;11.070;2023-05-18T02:33:44;99016.25;;;6.92
15360;BMP280;7779;49.596;11.070;2023-05-18T02:36:12;99021.88;;;6.90
15360;BMP280;7779;49.596;11.070;2023-05-18T02:38:42;99017.41;;;6.86
15360;BMP280;7779;49.596;11.070;2023-05-18T02:41:10;99020.28;;;6.80
15360;BMP280;7779;49.596;11.070;2023-05-18T02:43:37;99023.50;;;6.79
15360;BMP280;7779;49.596;11.070;2023-05-18T02:46:03;99026.50;;;6.75
15360;BMP280;7779;49.596;11.070;2023-05-18T02:48:29;99022.88;;;6.72
15360;BMP280;7779;49.596;11.070;2023-05-18T02:50:56;99024.25;;;6.68
15360;BMP280;7779;49.596;11.070;2023-05-18T02:53:22;99024.88;;;6.66
15360;BMP280;7779;49.596;11.070;2023-05-18T02:55:48;99027.97;;;6.63
15360;BMP280;7779;49.596;11.070;2023-05-18T02:58:20;99026.75;;;6.59
15360;BMP280;7779;49.596;11.070;2023-05-18T03:01:05;99015.69;;;6.55
15360;BMP280;7779;49.596;11.070;2023-05-18T03:03:39;99023.63;;;6.51
15360;BMP280;7779;49.596;11.070;2023-05-18T03:06:07;99027.50;;;6.48
15360;BMP280;7779;49.596;11.070;2023-05-18T03:08:34;99027.25;;;6.45
15360;BMP280;7779;49.596;11.070;2023-05-18T03:11:02;99023.75;;;6.43
15360;BMP280;7779;49.596;11.070;2023-05-18T03:13:28;99026.00;;;6.40
15360;BMP280;7779;49.596;11.070;2023-05-18T03:15:54;99031.72;;;6.39
15360;BMP280;7779;49.596;11.070;2023-05-18T03:18:21;99024.88;;;6.36
15360;BMP280;7779;49.596;11.070;2023-05-18T03:20:47;99027.22;;;6.35
15360;BMP280;7779;49.596;11.070;2023-05-18T03:23:18;99028.72;;;6.33
15360;BMP280;7779;49.596;11.070;2023-05-18T03:25:44;99026.09;;;6.31
15360;BMP280;7779;49.596;11.070;2023-05-18T03:28:10;99022.63;;;6.29
15360;BMP280;7779;49.596;11.070;2023-05-18T03:30:36;99025.00;;;6.28
15360;BMP280;7779;49.596;11.070;2023-05-18T03:33:04;99030.72;;;6.27
15360;BMP280;7779;49.596;11.070;2023-05-18T03:35:30;99027.22;;;6.25
15360;BMP280;7779;49.596;11.070;2023-05-18T03:37:56;99033.94;;;6.26
15360;BMP280;7779;49.596;11.070;2023-05-18T03:40:23;99027.22;;;6.25
15360;BMP280;7779;49.596;11.070;2023-05-18T03:42:49;99027.22;;;6.25
15360;BMP280;7779;49.596;11.070;2023-05-18T03:45:17;99028.97;;;6.26
15360;BMP280;7779;49.596;11.070;2023-05-18T03:47:43;99035.69;;;6.27
15360;BMP280;7779;49.596;11.070;2023-05-18T03:50:09;99030.72;;;6.27
15360;BMP280;7779;49.596;11.070;2023-05-18T03:52:36;99032.47;;;6.28
15360;BMP280;7779;49.596;11.070;2023-05-18T03:55:03;99035.94;;;6.30
15360;BMP280;7779;49.596;11.070;2023-05-18T03:57:31;99035.44;;;6.34
15360;BMP280;7779;49.596;11.070;2023-05-18T03:59:59;99029.72;;;6.35
15360;BMP280;7779;49.596;11.070;2023-05-18T04:02:25;99030.84;;;6.38
15360;BMP280;7779;49.596;11.070;2023-05-18T04:04:51;99036.94;;;6.42
15360;BMP280;7779;49.596;11.070;2023-05-18T04:07:19;99031.38;;;6.44
15360;BMP280;7779;49.596;11.070;2023-05-18T04:09:54;99031.00;;;6.50
15360;BMP280;7779;49.596;11.070;2023-05-18T04:12:20;99038.09;;;6.55
15360;BMP280;7779;49.596;11.070;2023-05-18T04:14:46;99040.94;;;6.60
15360;BMP280;7779;49.596;11.070;2023-05-18T04:17:18;99040.69;;;6.66
15360;BMP280;7779;49.596;11.070;2023-05-18T04:19:48;99041.94;;;6.71
15360;BMP280;7779;49.596;11.070;2023-05-18T04:22:15;99044.91;;;6.77
15360;BMP280;7779;49.596;11.070;2023-05-18T04:24:41;99047.16;;;6.84
15360;BMP280;7779;49.596;11.070;2023-05-18T04:27:08;99045.16;;;6.90
15360;BMP280;7779;49.596;11.070;2023-05-18T04:29:34;99049.03;;;6.97
15360;BMP280;7779;49.596;11.070;2023-05-18T04:32:05;99048.25;;;7.07
15360;BMP280;7779;49.596;11.070;2023-05-18T04:34:32;99045.13;;;7.20
15360;BMP280;7779;49.596;11.070;2023-05-18T04:37:05;99056.50;;;7.38
15360;BMP280;7779;49.596;11.070;2023-05-18T04:39:32;99057.75;;;7.52
15360;BMP280;7779;49.596;11.070;2023-05-18T04:42:00;99058.66;;;7.74
15360;BMP280;7779;49.596;11.070;2023-05-18T04:44:27;99061.50;;;8.00
15360;BMP280;7779;49.596;11.070;2023-05-18T04:46:54;99058.78;;;8.28
15360;BMP280;7779;49.596;11.070;2023-05-18T04:49:21;99058.84;;;8.51
15360;BMP280;7779;49.596;11.070;2023-05-18T04:51:55;99055.03;;;8.77
15360;BMP280;7779;49.596;11.070;2023-05-18T04:54:25;99050.84;;;8.98
15360;BMP280;7779;49.596;11.070;2023-05-18T04:56:53;99053.25;;;9.20
15360;BMP280;7779;49.596;11.070;2023-05-18T04:59:19;99050.88;;;9.44
15360;BMP280;7779;49.596;11.070;2023-05-18T05:01:45;99053.38;;;9.67
15360;BMP280;7779;49.596;11.070;2023-05-18T05:04:11;99049.66;;;9.84
15360;BMP280;7779;49.596;11.070;2023-05-18T05:06:37;99046.47;;;9.98
15360;BMP280;7779;49.596;11.070;2023-05-18T05:09:04;99047.97;;;10.19
15360;BMP280;7779;49.596;11.070;2023-05-18T05:11:30;99040.91;;;10.38
15360;BMP280;7779;49.596;11.070;2023-05-18T05:13:56;99038.09;;;10.57
15360;BMP280;7779;49.596;11.070;2023-05-18T05:16:22;99035.94;;;10.75
15360;BMP280;7779;49.596;11.070;2023-05-18T05:18:48;99038.97;;;10.95
15360;BMP280;7779;49.596;11.070;2023-05-18T05:21:15;99041.03;;;11.13
15360;BMP280;7779;49.596;11.070;2023-05-18T05:23:40;99048.88;;;11.30
15360;BMP280;7779;49.596;11.070;2023-05-18T05:26:07;99044.19;;;11.48
15360;BMP280;7779;49.596;11.070;2023-05-18T05:28:33;99047.81;;;11.66
15360;BMP280;7779;49.596;11.070;2023-05-18T05:30:59;99037.97;;;11.81
15360;BMP280;7779;49.596;11.070;2023-05-18T05:33:25;99043.16;;;11.97
15360;BMP280;7779;49.596;11.070;2023-05-18T05:35:51;99045.03;;;12.14
15360;BMP280;7779;49.596;11.070;2023-05-18T05:38:16;99051.09;;;12.30
15360;BMP280;7779;49.596;11.070;2023-05-18T05:40:42;99043.00;;;12.48
15360;BMP280;7779;49.596;11.070;2023-05-18T05:43:08;99041.00;;;12.70
15360;BMP280;7779;49.596;11.070;2023-05-18T05:45:34;99044.75;;;12.91
15360;BMP280;7779;49.596;11.070;2023-05-18T05:48:03;99040.06;;;13.11
15360;BMP280;7779;49.596;11.070;2023-05-18T05:50:31;99040.59;;;13.34
15360;BMP280;7779;49.596;11.070;2023-05-18T05:52:59;99042.84;;;13.59
15360;BMP280;7779;49.596;11.070;2023-05-18T05:55:25;99042.41;;;13.81
15360;BMP280;7779;49.596;11.070;2023-05-18T05:57:52;99033.69;;;14.05
15360;BMP280;7779;49.596;11.070;2023-05-18T06:00:18;99038.47;;;14.31
15360;BMP280;7779;49.596;11.070;2023-05-18T06:02:50;99032.38;;;14.59
15360;BMP280;7779;49.596;11.070;2023-05-18T06:05:23;99023.84;;;14.88
15360;BMP280;7779;49.596;11.070;2023-05-18T06:07:50;99030.41;;;15.18
15360;BMP280;7779;49.596;11.070;2023-05-18T06:10:16;99024.09;;;15.43
15360;BMP280;7779;49.596;11.070;2023-05-18T06:12:42;99021.88;;;15.66
15360;BMP280;7779;49.596;11.070;2023-05-18T06:15:08;99030.53;;;15.89
15360;BMP280;7779;49.596;11.070;2023-05-18T06:17:37;99024.84;;;16.11
15360;BMP280;7779;49.596;11.070;2023-05-18T06:20:04;99027.38;;;16.29
15360;BMP280;7779;49.596;11.070;2023-05-18T06:22:31;99029.03;;;16.47
15360;BMP280;7779;49.596;11.070;2023-05-18T06:25:17;99033.38;;;16.68
15360;BMP280;7779;49.596;11.070;2023-05-18T06:28:04;99021.59;;;16.89
15360;BMP280;7779;49.596;11.070;2023-05-18T06:30:42;99017.94;;;17.01
15360;BMP280;7779;49.596;11.070;2023-05-18T06:33:19;99020.97;;;17.13
15360;BMP280;7779;49.596;11.070;2023-05-18T06:35:45;99020.47;;;17.20
15360;BMP280;7779;49.596;11.070;2023-05-18T06:38:11;99017.34;;;17.27
15360;BMP280;7779;49.596;11.070;2023-05-18T06:40:37;99019.16;;;17.29
15360;BMP280;7779;49.596;11.070;2023-05-18T06:43:03;99023.47;;;17.32
15360;BMP280;7779;49.596;11.070;2023-05-18T06:45:42;99019.34;;;17.34
15360;BMP280;7779;49.596;11.070;2023-05-18T06:48:12;99006.72;;;17.35
15360;BMP280;7779;49.596;11.070;2023-05-18T06:50:38;99010.25;;;17.39
15360;BMP280;7779;49.596;11.070;2023-05-18T06:53:04;99024.78;;;17.43
15360;BMP280;7779;49.596;11.070;2023-05-18T06:55:30;99021.44;;;17.44
15360;BMP280;7779;49.596;11.070;2023-05-18T06:57:56;99023.28;;;17.48
15360;BMP280;7779;49.596;11.070;2023-05-18T07:00:23;99016.75;;;17.53
15360;BMP280;7779;49.596;11.070;2023-05-18T07:02:50;99016.28;;;17.62
15360;BMP280;7779;49.596;11.070;2023-05-18T07:05:17;99026.91;;;17.74
15360;BMP280;7779;49.596;11.070;2023-05-18T07:07:42;99024.72;;;17.83
15360;BMP280;7779;49.596;11.070;2023-05-18T07:10:08;99019.09;;;17.90
15360;BMP280;7779;49.596;11.070;2023-05-18T07:12:34;99015.03;;;17.95
15360;BMP280;7779;49.596;11.070;2023-05-18T07:15:00;99015.94;;;17.96
15360;BMP280;7779;49.596;11.070;2023-05-18T07:17:25;99015.16;;;17.98
15360;BMP280;7779;49.596;11.070;2023-05-18T07:19:51;99019.47;;;18.00
15360;BMP280;7779;49.596;11.070;2023-05-18T07:22:17;99023.00;;;18.04
15360;BMP280;7779;49.596;11.070;2023-05-18T07:24:42;99028.94;;;18.04
15360;BMP280;7779;49.596;11.070;2023-05-18T07:27:08;99024.81;;;18.06
15360;BMP280;7779;49.596;11.070;2023-05-18T07:29:34;99023.19;;;18.08
15360;BMP280;7779;49.596;11.070;2023-05-18T07:32:00;99016.69;;;18.15
15360;BMP280;7779;49.596;11.070;2023-05-18T07:34:25;99020.25;;;18.20
15360;BMP280;7779;49.596;11.070;2023-05-18T07:36:52;99017.03;;;18.24
15360;BMP280;7779;49.596;11.070;2023-05-18T07:39:18;99022.28;;;18.28
15360;BMP280;7779;49.596;11.070;2023-05-18T07:41:47;99012.94;;;18.27
15360;BMP280;7779;49.596;11.070;2023-05-18T07:44:14;99012.81;;;18.24
15360;BMP280;7779;49.596;11.070;2023-05-18T07:46:40;99008.56;;;18.23
15360;BMP280;7779;49.596;11.070;2023-05-18T07:49:06;99015.41;;;18.26
15360;BMP280;7779;49.596;11.070;2023-05-18T07:51:32;99004.53;;;18.28
15360;BMP280;7779;49.596;11.070;2023-05-18T07:53:58;99008.91;;;18.32
15360;BMP280;7779;49.596;11.070;2023-05-18T07:56:24;99001.44;;;18.37
15360;BMP280;7779;49.596;11.070;2023-05-18T07:58:51;99013.44;;;18.40
15360;BMP280;7779;49.596;11.070;2023-05-18T08:01:16;99010.94;;;18.42
15360;BMP280;7779;49.596;11.070;2023-05-18T08:03:42;99007.59;;;18.43
15360;BMP280;7779;49.596;11.070;2023-05-18T08:06:08;99008.47;;;18.43
15360;BMP280;7779;49.596;11.070;2023-05-18T08:08:33;99008.53;;;18.45
15360;BMP280;7779;49.596;11.070;2023-05-18T08:11:03;99008.53;;;18.45
15360;BMP280;7779;49.596;11.070;2023-05-18T08:13:29;99000.06;;;18.44
15360;BMP280;7779;49.596;11.070;2023-05-18T08:15:55;99012.81;;;18.46
15360;BMP280;7779;49.596;11.070;2023-05-18T08:18:21;99011.13;;;18.46
15360;BMP280;7779;49.596;11.070;2023-05-18T08:20:47;99009.28;;;18.42
15360;BMP280;7779;49.596;11.070;2023-05-18T08:23:14;99003.06;;;18.35
15360;BMP280;7779;49.596;11.070;2023-05-18T08:25:40;99007.78;;;18.26
15360;BMP280;7779;49.596;11.070;2023-05-18T08:28:06;99003.31;;;18.19
15360;BMP280;7779;49.596;11.070;2023-05-18T08:30:32;99001.53;;;18.16
15360;BMP280;7779;49.596;11.070;2023-05-18T08:32:58;99004.13;;;18.18
15360;BMP280;7779;49.596;11.070;2023-05-18T08:35:23;99004.47;;;18.27
15360;BMP280;7779;49.596;11.070;2023-05-18T08:37:49;99009.22;;;18.41
15360;BMP280;7779;49.596;11.070;2023-05-18T08:40:15;98998.84;;;18.58
15360;BMP280;7779;49.596;11.070;2023-05-18T08:42:50;98996.09;;;18.76
15360;BMP280;7779;49.596;11.070;2023-05-18T08:48:29;98994.16;;;19.17
15360;BMP280;7779;49.596;11.070;2023-05-18T08:50:57;98987.09;;;19.33
15360;BMP280;7779;49.596;11.070;2023-05-18T08:53:26;98994.47;;;19.52
15360;BMP280;7779;49.596;11.070;2023-05-18T08:55:53;98989.09;;;19.69
15360;BMP280;7779;49.596;11.070;2023-05-18T08:58:33;98985.47;;;19.87
15360;BMP280;7779;49.596;11.070;2023-05-18T09:01:00;98987.69;;;20.04
15360;BMP280;7779;49.596;11.070;2023-05-18T09:03:27;98978.69;;;20.15
15360;BMP280;7779;49.596;11.070;2023-05-18T09:05:55;98977.31;;;20.26
15360;BMP280;7779;49.596;11.070;2023-05-18T09:08:23;98967.41;;;20.35
15360;BMP280;7779;49.596;11.070;2023-05-18T09:10:49;98971.94;;;20.46
15360;BMP280;7779;49.596;11.070;2023-05-18T09:13:18;98971.38;;;20.56
15360;BMP280;7779;49.596;11.070;2023-05-18T09:15:47;98969.88;;;20.63
15360;BMP280;7779;49.596;11.070;2023-05-18T09:18:13;98970.00;;;20.67
15360;BMP280;7779;49.596;11.070;2023-05-18T09:20:39;98988.75;;;20.71
15360;BMP280;7779;49.596;11.070;2023-05-18T09:23:05;98981.97;;;20.70
15360;BMP280;7779;49.596;11.070;2023-05-18T09:25:32;98975.06;;;20.66
15360;BMP280;7779;49.596;11.070;2023-05-18T09:28:02;98963.28;;;20.69
15360;BMP280;7779;49.596;11.070;2023-05-18T09:30:28;98961.66;;;20.73
15360;BMP280;7779;49.596;11.070;2023-05-18T09:32:54;98962.75;;;20.80
15360;BMP280;7779;49.596;11.070;2023-05-18T09:35:23;98961.38;;;20.93
15360;BMP280;7779;49.596;11.070;2023-05-18T09:37:49;98959.25;;;21.09
15360;BMP280;7779;49.596;11.070;2023-05-18T09:40:17;98952.19;;;21.33
15360;BMP280;7779;49.596;11.070;2023-05-18T09:42:45;98953.66;;;21.58
15360;BMP280;7779;49.596;11.070;2023-05-18T09:45:21;98956.75;;;21.81
15360;BMP280;7779;49.596;11.070;2023-05-18T09:47:52;98943.47;;;21.95
15360;BMP280;7779;49.596;11.070;2023-05-18T09:50:20;98953.03;;;22.05
15360;BMP280;7779;49.596;11.070;2023-05-18T09:52:46;98945.53;;;22.12
15360;BMP280;7779;49.596;11.070;2023-05-18T09:55:18;98939.75;;;22.19
15360;BMP280;7779;49.596;11.070;2023-05-18T09:57:49;98932.13;;;22.21
15360;BMP280;7779;49.596;11.070;2023-05-18T10:00:17;98937.22;;;22.21
15360;BMP280;7779;49.596;11.070;2023-05-18T10:02:46;98935.47;;;22.18
15360;BMP280;7779;49.596;11.070;2023-05-18T10:05:25;98944.00;;;22.19
15360;BMP280;7779;49.596;11.070;2023-05-18T10:07:59;98942.22;;;22.16
15360;BMP280;7779;49.596;11.070;2023-05-18T10:10:27;98932.00;;;22.16
15360;BMP280;7779;49.596;11.070;2023-05-18T10:12:55;98931.22;;;22.19
15360;BMP280;7779;49.596;11.070;2023-05-18T10:15:24;98928.69;;;22.19
15360;BMP280;7779;49.596;11.070;2023-05-18T10:17:54;98925.28;;;22.20
15360;BMP280;7779;49.596;11.070;2023-05-18T10:20:22;98924.41;;;22.18
15360;BMP280;7779;49.596;11.070;2023-05-18T10:22:49;98922.41;;;22.05
15360;BMP280;7779;49.596;11.070;2023-05-18T10:25:21;98924.53;;;21.84
15360;BMP280;7779;49.596;11.070;2023-05-18T10:27:50;98929.22;;;21.66
15360;BMP280;7779;49.596;11.070;2023-05-18T10:30:18;98928.13;;;21.56
15360;BMP280;7779;49.596;11.070;2023-05-18T10:32:44;98927.19;;;21.52
15360;BMP280;7779;49.596;11.070;2023-05-18T10:35:12;98918.75;;;21.55
15360;BMP280;7779;49.596;11.070;2023-05-18T10:37:42;98928.16;;;21.58
15360;BMP280;7779;49.596;11.070;2023-05-18T10:40:09;98918.84;;;21.59
15360;BMP280;7779;49.596;11.070;2023-05-18T10:42:37;98923.91;;;21.57
15360;BMP280;7779;49.596;11.070;2023-05-18T10:45:05;98923.78;;;21.53
15360;BMP280;7779;49.596;11.070;2023-05-18T10:47:35;98924.47;;;21.45
15360;BMP280;7779;49.596;11.070;2023-05-18T10:50:04;98925.06;;;21.36
15360;BMP280;7779;49.596;11.070;2023-05-18T10:52:31;98913.06;;;21.31
15360;BMP280;7779;49.596;11.070;2023-05-18T10:54:58;98914.72;;;21.29
15360;BMP280;7779;49.596;11.070;2023-05-18T10:57:43;98911.34;;;21.31
15360;BMP280;7779;49.596;11.070;2023-05-18T11:00:11;98907.34;;;21.41
15360;BMP280;7779;49.596;11.070;2023-05-18T11:02:40;98909.34;;;21.54
15360;BMP280;7779;49.596;11.070;2023-05-18T11:05:08;98908.69;;;21.62
15360;BMP280;7779;49.596;11.070;2023-05-18T11:07:35;98900.41;;;21.70
15360;BMP280;7779;49.596;11.070;2023-05-18T11:10:07;98895.53;;;21.81
15360;BMP280;7779;49.596;11.070;2023-05-18T11:12:37;98892.28;;;21.89
15360;BMP280;7779;49.596;11.070;2023-05-18T11:15:03;98883.94;;;21.96
15360;BMP280;7779;49.596;11.070;2023-05-18T11:17:32;98879.81;;;22.02
15360;BMP280;7779;49.596;11.070;2023-05-18T11:22:51;98885.91;;;22.09
15360;BMP280;7779;49.596;11.070;2023-05-18T11:27:59;98887.34;;;21.96
15360;BMP280;7779;49.596;11.070;2023-05-18T11:30:48;98893.25;;;21.94
15360;BMP280;7779;49.596;11.070;2023-05-18T11:33:15;98880.47;;;21.93
15360;BMP280;7779;49.596;11.070;2023-05-18T11:36:12;98871.19;;;21.96
15360;BMP280;7779;49.596;11.070;2023-05-18T11:38:54;98866.25;;;22.05
15360;BMP280;7779;49.596;11.070;2023-05-18T11:41:39;98871.66;;;22.18
15360;BMP280;7779;49.596;11.070;2023-05-18T11:46:53;98867.06;;;22.45
15360;BMP280;7779;49.596;11.070;2023-05-18T11:49:22;98860.41;;;22.54
15360;BMP280;7779;49.596;11.070;2023-05-18T11:54:56;98866.75;;;22.75
15360;BMP280;7779;49.596;11.070;2023-05-18T12:00:04;98866.09;;;22.85
15360;BMP280;7779;49.596;11.070;2023-05-18T12:02:41;98863.69;;;22.93
15360;BMP280;7779;49.596;11.070;2023-05-18T12:05:08;98857.00;;;23.02
15360;BMP280;7779;49.596;11.070;2023-05-18T12:07:35;98863.13;;;23.12
15360;BMP280;7779;49.596;11.070;2023-05-18T12:10:06;98861.56;;;23.19
15360;BMP280;7779;49.596;11.070;2023-05-18T12:12:33;98858.19;;;23.23
15360;BMP280;7779;49.596;11.070;2023-05-18T12:15:05;98852.25;;;23.26
15360;BMP280;7779;49.596;11.070;2023-05-18T12:17:49;98852.25;;;23.26
15360;BMP280;7779;49.596;11.070;2023-05-18T12:20:21;98865.06;;;23.27
15360;BMP280;7779;49.596;11.070;2023-05-18T12:22:49;98864.22;;;23.27
15360;BMP280;7779;49.596;11.070;2023-05-18T12:25:20;98853.13;;;23.28
15360;BMP280;7779;49.596;11.070;2023-05-18T12:27:48;98848.91;;;23.30
15360;BMP280;7779;49.596;11.070;2023-05-18T12:32:46;98836.81;;;23.18
15360;BMP280;7779;49.596;11.070;2023-05-18T12:35:12;98856.31;;;23.11
15360;BMP280;7779;49.596;11.070;2023-05-18T12:37:45;98846.78;;;23.02
15360;BMP280;7779;49.596;11.070;2023-05-18T12:40:13;98845.72;;;22.88
15360;BMP280;7779;49.596;11.070;2023-05-18T12:42:53;98847.25;;;22.80
15360;BMP280;7779;49.596;11.070;2023-05-18T12:45:24;98847.19;;;22.76
15360;BMP280;7779;49.596;11.070;2023-05-18T12:47:51;98851.38;;;22.74
15360;BMP280;7779;49.596;11.070;2023-05-18T12:50:23;98853.06;;;22.72
15360;BMP280;7779;49.596;11.070;2023-05-18T12:52:51;98843.63;;;22.68
15360;BMP280;7779;49.596;11.070;2023-05-18T12:55:20;98832.53;;;22.66
15360;BMP280;7779;49.596;11.070;2023-05-18T12:58:04;98844.47;;;22.66
15360;BMP280;7779;49.596;11.070;2023-05-18T13:00:36;98836.59;;;22.55
15360;BMP280;7779;49.596;11.070;2023-05-18T13:03:07;98844.97;;;22.45
15360;BMP280;7779;49.596;11.070;2023-05-18T13:05:33;98834.56;;;22.36
15360;BMP280;7779;49.596;11.070;2023-05-18T13:07:59;98833.63;;;22.32
15360;BMP280;7779;49.596;11.070;2023-05-18T13:10:29;98825.03;;;22.27
15360;BMP280;7779;49.596;11.070;2023-05-18T13:12:59;98834.34;;;22.25
15360;BMP280;7779;49.596;11.070;2023-05-18T13:15:37;98832.69;;;22.27
15360;BMP280;7779;49.596;11.070;2023-05-18T13:18:08;98836.94;;;22.26
15360;BMP280;7779;49.596;11.070;2023-05-18T13:20:39;98840.25;;;22.24
15360;BMP280;7779;49.596;11.070;2023-05-18T13:23:12;98833.41;;;22.20
15360;BMP280;7779;49.596;11.070;2023-05-18T13:25:40;98824.78;;;22.15
15360;BMP280;7779;49.596;11.070;2023-05-18T13:28:07;98822.16;;;22.12
15360;BMP280;7779;49.596;11.070;2023-05-18T13:30:36;98813.75;;;22.16
15360;BMP280;7779;49.596;11.070;2023-05-18T13:33:03;98816.44;;;22.23
15360;BMP280;7779;49.596;11.070;2023-05-18T13:35:29;98815.75;;;22.32
15360;BMP280;7779;49.596;11.070;2023-05-18T13:37:55;98819.25;;;22.36
15360;BMP280;7779;49.596;11.070;2023-05-18T13:40:21;98818.44;;;22.39
15360;BMP280;7779;49.596;11.070;2023-05-18T13:42:49;98819.41;;;22.44
15360;BMP280;7779;49.596;11.070;2023-05-18T13:45:16;98814.41;;;22.51
15360;BMP280;7779;49.596;11.070;2023-05-18T13:47:42;98811.13;;;22.58
15360;BMP280;7779;49.596;11.070;2023-05-18T13:50:10;98812.03;;;22.62
15360;BMP280;7779;49.596;11.070;2023-05-18T13:52:36;98809.50;;;22.62
15360;BMP280;7779;49.596;11.070;2023-05-18T13:55:05;98814.50;;;22.57
15360;BMP280;7779;49.596;11.070;2023-05-18T13:57:31;98810.97;;;22.49
15360;BMP280;7779;49.596;11.070;2023-05-18T13:59:57;98805.72;;;22.40
15360;BMP280;7779;49.596;11.070;2023-05-18T14:02:24;98814.94;;;22.34
15360;BMP280;7779;49.596;11.070;2023-05-18T14:04:50;98805.44;;;22.26
15360;BMP280;7779;49.596;11.070;2023-05-18T14:07:17;98808.66;;;22.16
15360;BMP280;7779;49.596;11.070;2023-05-18T14:09:43;98810.94;;;22.02
15360;BMP280;7779;49.596;11.070;2023-05-18T14:12:09;98810.66;;;21.89
15360;BMP280;7779;49.596;11.070;2023-05-18T14:14:36;98807.88;;;21.77
15360;BMP280;7779;49.596;11.070;2023-05-18T14:17:02;98803.44;;;21.69
15360;BMP280;7779;49.596;11.070;2023-05-18T14:19:28;98802.44;;;21.61
15360;BMP280;7779;49.596;11.070;2023-05-18T14:21:53;98793.88;;;21.57
15360;BMP280;7779;49.596;11.070;2023-05-18T14:24:19;98787.03;;;21.56
15360;BMP280;7779;49.596;11.070;2023-05-18T14:26:45;98798.13;;;21.58
15360;BMP280;7779;49.596;11.070;2023-05-18T14:29:10;98798.97;;;21.57
15360;BMP280;7779;49.596;11.070;2023-05-18T14:31:36;98791.28;;;21.56
15360;BMP280;7779;49.596;11.070;2023-05-18T14:34:02;98792.13;;;21.56
15360;BMP280;7779;49.596;11.070;2023-05-18T14:36:27;98792.09;;;21.55
15360;BMP280;7779;49.596;11.070;2023-05-18T14:38:53;98779.34;;;21.55
15360;BMP280;7779;49.596;11.070;2023-05-18T14:41:19;98788.78;;;21.57
15360;BMP280;7779;49.596;11.070;2023-05-18T14:43:46;98778.59;;;21.60
15360;BMP280;7779;49.596;11.070;2023-05-18T14:46:12;98778.75;;;21.66
15360;BMP280;7779;49.596;11.070;2023-05-18T14:48:38;98781.41;;;21.72